Portada
METAR-TAF:

METAR-TAF

Aeropuertos :

Aeropuerto Internacional Fua'amotu

Tongatapu, Tonga

latitud: 21-14S, longitud: 175-09W, altitud: 38 m

Observación

El informe se hizo hace 34 minutos, a las 13:00 UTC
Viento 7 kt del sur-suroeste
Temperatura 22°C
Humedad 73%
Presión 1008 hPa
Visibilidad 10 km o más
Escasas nubes a una altura de 1700 ft

METAR: NFTF 101300Z 20007KT 9999 FEW017 22/17 Q1008

Hora: 03:34 (13:34 UTC)

Pronóstico

El informe se hizo hace 2 horas y 30 minutos, a las 11:04 UTC
Pronóstico válido del 10 a las 12 UTC al 11 a las 12 UTC
Viento 12 kt del sur
Visibilidad 10 km o más
Cielo nuboso a una altura de 1700 ft

TAF: NFTF 101104Z 1012/1112 19012KT 9999 BKN017

Observaciones y pronósticos meteorológicos de más de 4000 aeropuertos (mensajes METAR y TAF).

Los puntos amarillos y rojos representan las estaciones disponibles.

Ponga el ratón en el punto deseado para ver el nombre de la estación.

Haga clic para ver las observaciones y los pronósticos meteorológicos.

Para cambiar el mapa : haga clic en los botones verdes con una cruz de color negro para hacer un zoom, en el botón verde con un guión para alejar o en las flechas verdes para mapas adyacentes.


METAR-TAF: